createdAt,value
2023-01-02T00:01:30.834Z,68.49
2023-01-02T00:03:59.410Z,68.70
2023-01-02T00:06:27.530Z,68.71
2023-01-02T00:08:55.935Z,68.66
2023-01-02T00:11:23.968Z,68.62
2023-01-02T00:13:54.281Z,68.67
2023-01-02T00:16:22.119Z,68.65
2023-01-02T00:18:51.673Z,68.68
2023-01-02T00:21:19.822Z,68.56
2023-01-02T00:23:48.762Z,68.51
2023-01-02T00:26:17.630Z,68.51
2023-01-02T00:28:45.690Z,68.47
2023-01-02T00:31:14.260Z,68.64
2023-01-02T00:33:44.827Z,68.56
2023-01-02T00:36:13.152Z,68.54
2023-01-02T00:38:41.397Z,68.53
2023-01-02T00:41:09.368Z,68.60
2023-01-02T00:43:37.638Z,68.71
2023-01-02T00:46:11.450Z,68.62
2023-01-02T00:48:41.056Z,68.66
2023-01-02T00:51:09.002Z,68.67
2023-01-02T00:53:38.712Z,68.84
2023-01-02T00:56:10.757Z,68.87
2023-01-02T00:58:38.751Z,68.92
2023-01-02T01:01:08.190Z,68.96
2023-01-02T01:03:37.171Z,68.87
2023-01-02T01:06:14.002Z,68.95
2023-01-02T01:08:43.427Z,68.98
2023-01-02T01:11:16.340Z,68.91
2023-01-02T01:13:44.500Z,68.76
2023-01-02T01:16:14.627Z,68.88
2023-01-02T01:18:45.646Z,68.91
2023-01-02T01:21:18.684Z,68.78
2023-01-02T01:23:51.123Z,68.82
2023-01-02T01:26:20.304Z,68.75
2023-01-02T01:28:52.695Z,68.73
2023-01-02T01:31:21.666Z,68.72
2023-01-02T01:33:51.117Z,68.77
2023-01-02T01:36:20.501Z,68.70
2023-01-02T01:38:54.657Z,68.93
2023-01-02T01:41:25.192Z,68.79
2023-01-02T01:43:55.506Z,68.90
2023-01-02T01:46:29.562Z,68.85
2023-01-02T01:49:00.501Z,69.02
2023-01-02T01:51:29.422Z,69.01
2023-01-02T01:54:01.311Z,69.22
2023-01-02T01:56:29.333Z,69.24
2023-01-02T01:58:57.356Z,69.07
2023-01-02T02:01:25.323Z,69.04
2023-01-02T02:03:54.131Z,68.96
2023-01-02T02:06:22.007Z,69.01
2023-01-02T02:08:52.659Z,68.95
2023-01-02T02:11:20.669Z,69.10
2023-01-02T02:13:53.904Z,69.00
2023-01-02T02:16:27.931Z,68.97
2023-01-02T02:19:07.230Z,68.93
2023-01-02T02:21:50.487Z,69.11
2023-01-02T02:24:32.684Z,68.99
2023-01-02T02:27:07.518Z,69.09
2023-01-02T02:29:51.494Z,69.15
2023-01-02T02:32:26.408Z,69.10
2023-01-02T02:34:59.518Z,69.09
2023-01-02T02:37:32.000Z,69.33
2023-01-02T02:40:03.032Z,69.30
2023-01-02T02:42:36.301Z,69.17
2023-01-02T02:45:11.660Z,69.27
2023-01-02T02:47:43.415Z,69.17
2023-01-02T02:50:14.520Z,69.30
2023-01-02T02:52:47.319Z,69.17
2023-01-02T02:55:18.563Z,69.19
2023-01-02T02:57:50.479Z,69.17
2023-01-02T03:00:19.861Z,69.03
2023-01-02T03:02:47.996Z,69.17
2023-01-02T03:05:22.985Z,69.18
2023-01-02T03:07:54.046Z,69.13
2023-01-02T03:10:27.605Z,69.16
2023-01-02T03:13:04.545Z,69.30
2023-01-02T03:15:37.838Z,69.19
2023-01-02T03:18:10.580Z,69.14
2023-01-02T03:20:42.103Z,69.10
2023-01-02T03:23:14.170Z,69.17
2023-01-02T03:25:43.835Z,69.06
2023-01-02T03:28:17.669Z,69.16
2023-01-02T03:30:48.000Z,69.24
2023-01-02T03:33:18.246Z,69.21
2023-01-02T03:35:49.044Z,69.23
2023-01-02T03:38:22.260Z,69.03
2023-01-02T03:40:52.938Z,69.09
2023-01-02T03:43:23.289Z,69.16
2023-01-02T03:45:56.858Z,69.14
2023-01-02T03:48:29.214Z,69.24
2023-01-02T03:50:59.755Z,69.31
2023-01-02T03:53:28.957Z,69.09
2023-01-02T03:56:07.556Z,69.01
2023-01-02T03:58:39.420Z,69.02
2023-01-02T04:01:11.862Z,69.38
2023-01-02T04:03:42.510Z,69.53
2023-01-02T04:06:12.462Z,69.65
2023-01-02T04:08:44.809Z,69.61
2023-01-02T04:11:22.651Z,69.26
2023-01-02T04:13:56.316Z,69.26
2023-01-02T04:16:27.486Z,69.34
2023-01-02T04:18:58.858Z,69.50
2023-01-02T04:21:30.285Z,69.47
2023-01-02T04:24:00.213Z,69.47
2023-01-02T04:26:31.749Z,69.19
2023-01-02T04:29:00.339Z,68.93
2023-01-02T04:31:32.513Z,68.88
2023-01-02T04:34:01.993Z,68.95
2023-01-02T04:36:30.089Z,68.99
2023-01-02T04:38:58.236Z,69.00
2023-01-02T04:41:26.807Z,68.93
2023-01-02T04:43:55.101Z,69.15
2023-01-02T04:46:39.556Z,69.20
2023-01-02T04:49:09.039Z,69.39
2023-01-02T04:51:36.973Z,69.38
2023-01-02T04:54:05.174Z,69.29
2023-01-02T04:56:33.350Z,69.33
2023-01-02T04:59:01.590Z,69.25
2023-01-02T05:01:30.597Z,69.39
2023-01-02T05:03:58.938Z,69.41
2023-01-02T05:06:27.171Z,69.50
2023-01-02T05:08:55.492Z,69.57
2023-01-02T05:11:23.404Z,69.53
2023-01-02T05:13:56.103Z,69.54
2023-01-02T05:16:27.512Z,69.59
2023-01-02T05:18:58.353Z,69.51
2023-01-02T05:21:45.123Z,69.57
2023-01-02T05:24:20.777Z,69.75
2023-01-02T05:26:50.990Z,69.68
2023-01-02T05:29:20.795Z,69.74
2023-01-02T05:31:53.082Z,69.72
2023-01-02T05:34:21.589Z,69.60
2023-01-02T05:36:50.037Z,69.72
2023-01-02T05:39:19.643Z,69.65
2023-01-02T05:41:50.352Z,69.70
2023-01-02T05:44:19.073Z,69.55
2023-01-02T05:46:47.426Z,69.69
2023-01-02T05:49:16.555Z,69.73
2023-01-02T05:51:44.635Z,69.70
2023-01-02T05:54:12.549Z,69.64
2023-01-02T05:56:40.441Z,69.74
2023-01-02T05:59:08.600Z,69.76
2023-01-02T06:01:37.096Z,69.77
2023-01-02T06:04:05.460Z,69.71
2023-01-02T06:06:34.469Z,69.84
2023-01-02T06:09:03.749Z,69.73
2023-01-02T06:11:32.667Z,69.91
2023-01-02T06:14:04.289Z,69.83
2023-01-02T06:16:32.528Z,69.90
2023-01-02T06:19:09.997Z,69.85
2023-01-02T06:21:40.497Z,69.78
2023-01-02T06:24:08.663Z,69.91
2023-01-02T06:26:36.737Z,69.88
2023-01-02T06:29:05.046Z,69.81
2023-01-02T06:31:33.401Z,69.81
2023-01-02T06:34:02.628Z,69.83
2023-01-02T06:36:31.320Z,69.93
2023-01-02T06:38:59.604Z,69.87
2023-01-02T06:41:27.996Z,69.92
2023-01-02T06:43:55.763Z,69.98
2023-01-02T06:46:25.343Z,69.95
2023-01-02T06:48:53.890Z,69.90
2023-01-02T06:51:22.476Z,69.94
2023-01-02T06:53:50.526Z,70.03
2023-01-02T06:56:19.658Z,70.03
2023-01-02T06:58:49.808Z,69.98
2023-01-02T07:01:20.704Z,70.04
2023-01-02T07:03:49.035Z,70.08
2023-01-02T07:06:18.906Z,70.05
2023-01-02T07:08:50.470Z,70.13
2023-01-02T07:11:19.687Z,70.08
2023-01-02T07:13:51.960Z,70.07
2023-01-02T07:16:20.489Z,70.17
2023-01-02T07:18:51.133Z,70.33
2023-01-02T07:21:19.440Z,70.31
2023-01-02T07:23:48.083Z,70.42
2023-01-02T07:26:17.804Z,70.38
2023-01-02T07:28:45.880Z,70.46
2023-01-02T07:31:14.390Z,70.43
2023-01-02T07:33:43.252Z,70.49
2023-01-02T07:36:12.284Z,70.43
2023-01-02T07:38:40.216Z,70.55
2023-01-02T07:41:13.619Z,70.60
2023-01-02T07:43:41.598Z,70.55
2023-01-02T07:46:09.845Z,70.59
2023-01-02T07:48:37.641Z,70.58
2023-01-02T07:51:06.639Z,70.54
2023-01-02T07:53:35.025Z,70.58
2023-01-02T07:56:03.543Z,70.71
2023-01-02T07:58:31.520Z,70.68
2023-01-02T08:01:05.212Z,70.74
2023-01-02T08:03:33.550Z,70.82
2023-01-02T08:06:05.042Z,70.78
2023-01-02T08:08:32.824Z,70.85
2023-01-02T08:11:03.826Z,70.86
2023-01-02T08:13:31.581Z,70.86
2023-01-02T08:16:02.706Z,70.81
2023-01-02T08:18:30.326Z,70.94
2023-01-02T08:20:58.348Z,70.87
2023-01-02T08:23:26.119Z,70.86
2023-01-02T08:25:57.686Z,71.05
2023-01-02T08:28:25.594Z,70.91
2023-01-02T08:30:53.567Z,70.79
2023-01-02T08:33:22.074Z,70.85
2023-01-02T08:35:50.177Z,70.82
2023-01-02T08:38:18.094Z,70.85
2023-01-02T08:40:45.830Z,70.97
2023-01-02T08:43:14.554Z,70.98
2023-01-02T08:45:44.262Z,71.03
2023-01-02T08:48:20.536Z,71.11
2023-01-02T08:50:49.531Z,71.05
2023-01-02T08:53:18.676Z,71.08
2023-01-02T08:55:46.422Z,71.07
2023-01-02T08:58:14.325Z,71.05
2023-01-02T09:00:42.160Z,71.08
2023-01-02T09:03:09.959Z,70.90
2023-01-02T09:05:38.002Z,71.01
2023-01-02T09:08:05.869Z,70.88
2023-01-02T09:10:33.610Z,70.77
2023-01-02T09:13:01.595Z,70.85
2023-01-02T09:15:31.186Z,70.71
2023-01-02T09:17:59.272Z,70.82
2023-01-02T09:20:26.973Z,70.90
2023-01-02T09:22:54.793Z,70.75
2023-01-02T09:25:24.598Z,70.92
2023-01-02T09:27:52.563Z,70.88
2023-01-02T09:30:20.584Z,70.99
2023-01-02T09:32:50.246Z,71.02
2023-01-02T09:35:18.075Z,71.14
2023-01-02T09:37:45.804Z,71.11
2023-01-02T09:40:14.392Z,71.22
2023-01-02T09:42:44.091Z,71.14
2023-01-02T09:45:12.853Z,71.22
2023-01-02T09:47:41.474Z,71.13
2023-01-02T09:50:13.397Z,71.22
2023-01-02T09:52:42.342Z,71.08
2023-01-02T09:55:16.881Z,71.14
2023-01-02T09:57:48.987Z,71.07
2023-01-02T10:00:19.251Z,70.90
2023-01-02T10:02:51.437Z,70.97
2023-01-02T10:05:26.646Z,71.06
2023-01-02T10:07:58.102Z,70.95
2023-01-02T10:10:27.620Z,71.08
2023-01-02T10:13:00.868Z,70.90
2023-01-02T10:15:30.479Z,70.83
2023-01-02T10:18:00.015Z,70.99
2023-01-02T10:20:29.840Z,70.97
2023-01-02T10:23:00.938Z,70.89
2023-01-02T10:25:31.108Z,70.85
2023-01-02T10:28:01.275Z,70.99
2023-01-02T10:30:32.625Z,70.97
2023-01-02T10:33:02.901Z,70.81
2023-01-02T10:35:34.429Z,70.83
2023-01-02T10:38:02.762Z,70.73
2023-01-02T10:40:31.653Z,70.83
2023-01-02T10:43:00.377Z,70.86
2023-01-02T10:45:28.243Z,70.93
2023-01-02T10:47:56.035Z,70.93
2023-01-02T10:50:27.889Z,70.73
2023-01-02T10:53:05.675Z,70.79
2023-01-02T10:55:37.119Z,70.79
2023-01-02T10:58:05.893Z,70.70
2023-01-02T11:00:36.263Z,70.67
2023-01-02T11:03:14.031Z,70.60
2023-01-02T11:05:45.246Z,70.54
2023-01-02T11:08:13.916Z,70.59
2023-01-02T11:10:41.836Z,70.59
2023-01-02T11:13:10.469Z,70.64
2023-01-02T11:15:47.151Z,70.55
2023-01-02T11:18:19.906Z,70.61
2023-01-02T11:20:49.568Z,70.51
2023-01-02T11:23:21.118Z,70.67
2023-01-02T11:25:50.830Z,70.60
2023-01-02T11:28:20.676Z,70.62
2023-01-02T11:30:50.565Z,70.55
2023-01-02T11:33:20.018Z,70.73
2023-01-02T11:35:48.684Z,70.55
2023-01-02T11:38:29.588Z,70.71
2023-01-02T11:40:59.966Z,70.55
2023-01-02T11:43:50.556Z,70.68
2023-01-02T11:46:23.075Z,70.65
2023-01-02T11:48:55.809Z,70.54
2023-01-02T11:51:26.844Z,70.56
2023-01-02T11:53:55.949Z,70.53
2023-01-02T11:56:30.346Z,70.51
2023-01-02T11:59:01.055Z,70.42
2023-01-02T12:01:35.651Z,70.50
2023-01-02T12:04:04.407Z,70.48
2023-01-02T12:06:38.636Z,70.65
2023-01-02T12:09:10.672Z,70.54
2023-01-02T12:11:44.009Z,70.50
2023-01-02T12:14:16.724Z,70.69
2023-01-02T12:16:50.718Z,70.53
2023-01-02T12:19:51.310Z,70.69
2023-01-02T12:22:29.883Z,70.69
2023-01-02T12:25:07.100Z,70.74
2023-01-02T12:27:38.328Z,70.65
2023-01-02T12:30:12.179Z,70.54
2023-01-02T12:32:56.798Z,70.73
2023-01-02T12:35:36.628Z,70.49
2023-01-02T12:38:07.319Z,70.60
2023-01-02T12:40:43.794Z,70.58
2023-01-02T12:43:31.175Z,70.76
2023-01-02T12:46:08.173Z,70.65
2023-01-02T12:48:45.477Z,70.76
2023-01-02T12:51:17.477Z,70.63
2023-01-02T12:54:19.979Z,70.69
2023-01-02T12:56:42.967Z,70.46
2023-01-02T12:59:20.589Z,70.58
2023-01-02T13:01:51.587Z,70.41
2023-01-02T13:04:22.098Z,70.38
2023-01-02T13:06:55.941Z,70.52
2023-01-02T13:09:28.348Z,70.30
2023-01-02T13:11:59.692Z,70.47
2023-01-02T13:14:31.344Z,70.39
2023-01-02T13:17:05.354Z,70.05
2023-01-02T13:19:37.130Z,70.15
2023-01-02T13:22:11.613Z,70.10
2023-01-02T13:24:41.022Z,70.11
2023-01-02T13:27:10.339Z,70.05
2023-01-02T13:29:42.095Z,70.29
2023-01-02T13:32:11.154Z,70.10
2023-01-02T13:34:47.047Z,70.04
2023-01-02T13:37:23.367Z,70.12
2023-01-02T13:39:52.736Z,70.04
2023-01-02T13:42:41.279Z,69.81
2023-01-02T13:45:12.316Z,69.98
2023-01-02T13:47:46.144Z,70.11
2023-01-02T13:50:18.262Z,69.96
2023-01-02T13:52:58.489Z,69.79
2023-01-02T13:55:32.024Z,70.09
2023-01-02T13:58:19.964Z,69.89
2023-01-02T14:00:54.408Z,69.82
2023-01-02T14:03:35.388Z,69.94
2023-01-02T14:06:04.155Z,69.80
2023-01-02T14:08:32.735Z,69.95
2023-01-02T14:11:01.974Z,69.86
2023-01-02T14:13:37.832Z,69.86
2023-01-02T14:16:19.832Z,69.89
2023-01-02T14:19:01.800Z,69.73
2023-01-02T14:21:33.557Z,69.60
2023-01-02T14:24:17.176Z,69.96
2023-01-02T14:26:51.859Z,69.54
2023-01-02T14:29:20.594Z,69.73
2023-01-02T14:31:55.075Z,69.61
2023-01-02T14:34:25.290Z,69.52
2023-01-02T14:36:56.759Z,69.64
2023-01-02T14:39:26.995Z,69.61
2023-01-02T14:42:31.271Z,69.54
2023-01-02T14:45:03.730Z,69.63
2023-01-02T14:47:36.289Z,69.56
2023-01-02T14:50:06.546Z,69.53
2023-01-02T14:52:39.953Z,69.43
2023-01-02T14:55:13.006Z,69.53
2023-01-02T14:57:44.379Z,69.48
2023-01-02T15:00:18.846Z,69.31
2023-01-02T15:02:50.715Z,69.47
2023-01-02T15:05:26.894Z,69.53
2023-01-02T15:07:56.603Z,69.57
2023-01-02T15:10:25.205Z,69.55
2023-01-02T15:13:06.996Z,69.51
2023-01-02T15:15:36.860Z,69.60
2023-01-02T15:18:07.752Z,69.41
2023-01-02T15:20:35.764Z,69.43
2023-01-02T15:23:04.391Z,69.49
2023-01-02T15:25:36.144Z,69.67
2023-01-02T15:28:04.263Z,69.41
2023-01-02T15:30:37.944Z,69.50
2023-01-02T15:33:06.729Z,69.43
2023-01-02T15:35:37.697Z,69.59
2023-01-02T15:38:18.698Z,69.60
2023-01-02T15:40:46.920Z,69.49
2023-01-02T15:43:35.676Z,69.42
2023-01-02T15:46:05.066Z,69.33
2023-01-02T15:48:33.953Z,69.41
2023-01-02T15:51:03.167Z,69.38
2023-01-02T15:53:32.571Z,69.54
2023-01-02T15:56:00.571Z,69.48
2023-01-02T15:58:30.067Z,69.61
2023-01-02T16:01:15.043Z,69.57
2023-01-02T16:04:01.398Z,69.48
2023-01-02T16:06:33.513Z,69.57
2023-01-02T16:09:03.275Z,69.43
2023-01-02T16:11:33.275Z,69.33
2023-01-02T16:14:19.302Z,69.45
2023-01-02T16:16:49.072Z,69.44
2023-01-02T16:19:22.592Z,69.53
2023-01-02T16:22:01.527Z,69.66
2023-01-02T16:24:34.738Z,69.59
2023-01-02T16:27:04.266Z,69.68
2023-01-02T16:29:34.210Z,69.89
2023-01-02T16:32:03.044Z,69.78
2023-01-02T16:34:32.989Z,69.71
2023-01-02T16:37:22.514Z,69.69
2023-01-02T16:39:50.463Z,69.69
2023-01-02T16:42:36.999Z,69.78
2023-01-02T16:45:06.508Z,69.70
2023-01-02T16:47:39.289Z,69.69
2023-01-02T16:50:14.584Z,69.74
2023-01-02T16:52:43.981Z,69.73
2023-01-02T16:55:18.657Z,69.71
2023-01-02T16:57:46.950Z,69.60
2023-01-02T17:00:16.409Z,69.67
2023-01-02T17:02:47.843Z,69.74
2023-01-02T17:05:17.921Z,69.73
2023-01-02T17:07:46.385Z,69.75
2023-01-02T17:10:14.648Z,69.65
2023-01-02T17:12:47.090Z,69.64
2023-01-02T17:15:18.539Z,69.68
2023-01-02T17:17:46.561Z,69.78
2023-01-02T17:20:15.970Z,69.66
2023-01-02T17:22:44.393Z,69.83
2023-01-02T17:25:13.551Z,69.81
2023-01-02T17:27:44.568Z,69.98
2023-01-02T17:30:13.907Z,69.92
2023-01-02T17:32:43.128Z,69.88
2023-01-02T17:35:11.169Z,69.90
2023-01-02T17:37:39.200Z,69.89
2023-01-02T17:40:12.430Z,69.95
2023-01-02T17:42:41.284Z,69.78
2023-01-02T17:45:10.480Z,69.88
2023-01-02T17:48:00.756Z,69.86
2023-01-02T17:50:28.544Z,69.81
2023-01-02T17:52:56.908Z,69.83
2023-01-02T17:55:25.575Z,69.78
2023-01-02T17:57:54.507Z,69.87
2023-01-02T18:00:23.851Z,69.75
2023-01-02T18:02:52.379Z,69.77
2023-01-02T18:05:21.848Z,69.84
2023-01-02T18:07:49.694Z,69.90
2023-01-02T18:10:20.846Z,69.82
2023-01-02T18:12:49.968Z,69.99
2023-01-02T18:15:19.670Z,70.06
2023-01-02T18:17:47.790Z,70.11
2023-01-02T18:20:20.317Z,69.97
2023-01-02T18:22:50.506Z,69.98
2023-01-02T18:25:20.046Z,70.02
2023-01-02T18:27:48.747Z,69.97
2023-01-02T18:30:18.970Z,70.02
2023-01-02T18:32:47.483Z,69.94
2023-01-02T18:35:54.734Z,69.95
2023-01-02T18:38:13.795Z,70.10
2023-01-02T18:40:42.031Z,69.98
2023-01-02T18:43:17.479Z,69.97
2023-01-02T18:45:46.862Z,70.02
2023-01-02T18:48:17.440Z,69.99
2023-01-02T18:50:49.458Z,69.97
2023-01-02T18:53:21.827Z,70.06
2023-01-02T18:55:51.401Z,70.08
2023-01-02T18:58:33.305Z,70.12
2023-01-02T19:01:06.897Z,70.13
2023-01-02T19:03:35.655Z,70.25
2023-01-02T19:06:05.776Z,70.16
2023-01-02T19:08:36.341Z,70.34
2023-01-02T19:11:32.100Z,70.29
2023-01-02T19:14:10.427Z,70.27
2023-01-02T19:16:41.548Z,70.17
2023-01-02T19:19:12.524Z,70.21
2023-01-02T19:21:40.698Z,70.22
2023-01-02T19:24:14.101Z,70.24
2023-01-02T19:26:43.364Z,70.30
2023-01-02T19:29:19.545Z,70.20
2023-01-02T19:31:50.392Z,70.31
2023-01-02T19:34:26.052Z,70.34
2023-01-02T19:36:56.927Z,70.32
2023-01-02T19:39:26.384Z,70.48
2023-01-02T19:42:12.623Z,70.50
2023-01-02T19:44:41.498Z,70.56
2023-01-02T19:47:11.076Z,70.64
2023-01-02T19:49:38.873Z,70.67
2023-01-02T19:52:10.652Z,70.58
2023-01-02T19:54:39.554Z,70.72
2023-01-02T19:57:08.180Z,70.73
2023-01-02T19:59:43.311Z,70.66
2023-01-02T20:02:12.758Z,70.71
2023-01-02T20:04:41.404Z,70.75
2023-01-02T20:07:09.739Z,70.71
2023-01-02T20:09:37.918Z,70.73
2023-01-02T20:12:24.161Z,70.80
2023-01-02T20:14:52.195Z,70.81
2023-01-02T20:17:23.746Z,70.83
2023-01-02T20:19:51.559Z,70.69
2023-01-02T20:22:22.833Z,70.78
2023-01-02T20:24:50.553Z,70.65
2023-01-02T20:27:24.565Z,70.78
2023-01-02T20:29:54.545Z,70.78
2023-01-02T20:32:24.812Z,70.72
2023-01-02T20:34:54.724Z,70.62
2023-01-02T20:37:26.056Z,70.71
2023-01-02T20:39:54.136Z,70.78
2023-01-02T20:42:23.093Z,70.75
2023-01-02T20:44:50.901Z,70.75
2023-01-02T20:47:24.379Z,70.84
2023-01-02T20:49:52.440Z,70.89
2023-01-02T20:52:26.451Z,70.76
2023-01-02T20:54:57.800Z,70.82
2023-01-02T20:57:25.598Z,70.81
2023-01-02T20:59:53.874Z,70.82
2023-01-02T21:02:23.332Z,70.84
2023-01-02T21:04:51.981Z,70.72
2023-01-02T21:07:19.862Z,70.61
2023-01-02T21:09:47.592Z,70.62
2023-01-02T21:12:38.298Z,70.66
2023-01-02T21:15:29.208Z,70.64
2023-01-02T21:18:00.103Z,70.71
2023-01-02T21:20:33.339Z,70.81
2023-01-02T21:23:01.735Z,70.73
2023-01-02T21:25:29.601Z,70.64
2023-01-02T21:28:01.145Z,70.58
2023-01-02T21:30:29.364Z,70.67
2023-01-02T21:32:57.348Z,70.84
2023-01-02T21:35:25.357Z,70.82
2023-01-02T21:37:53.233Z,70.78
2023-01-02T21:40:21.228Z,70.73
2023-01-02T21:42:49.122Z,70.75
2023-01-02T21:45:18.402Z,70.86
2023-01-02T21:47:46.623Z,70.89
2023-01-02T21:50:14.653Z,70.75
2023-01-02T21:52:42.532Z,70.74
2023-01-02T21:55:10.959Z,70.81
2023-01-02T21:58:11.634Z,70.89
2023-01-02T22:00:28.237Z,70.84
2023-01-02T22:02:56.077Z,70.77
2023-01-02T22:05:24.691Z,70.77
2023-01-02T22:07:52.754Z,70.79
2023-01-02T22:10:20.554Z,70.86
2023-01-02T22:12:48.392Z,70.89
2023-01-02T22:15:16.427Z,70.82
2023-01-02T22:17:46.775Z,70.92
2023-01-02T22:20:14.575Z,70.82
2023-01-02T22:22:42.675Z,70.98
2023-01-02T22:25:11.242Z,70.88
2023-01-02T22:27:42.248Z,70.80
2023-01-02T22:30:22.990Z,70.97
2023-01-02T22:32:53.811Z,70.76
2023-01-02T22:35:21.707Z,70.85
2023-01-02T22:37:49.389Z,70.88
2023-01-02T22:40:19.003Z,70.84
2023-01-02T22:43:05.398Z,70.86
2023-01-02T22:45:41.498Z,70.71
2023-01-02T22:48:14.974Z,70.69
2023-01-02T22:50:43.930Z,70.80
2023-01-02T22:53:18.010Z,70.80
2023-01-02T22:55:46.026Z,70.89
2023-01-02T22:58:14.581Z,70.97
2023-01-02T23:00:42.515Z,70.96
2023-01-02T23:03:14.268Z,70.83
2023-01-02T23:05:46.270Z,70.87
2023-01-02T23:08:14.294Z,70.84
2023-01-02T23:10:42.187Z,70.93
2023-01-02T23:13:12.541Z,70.89
2023-01-02T23:15:57.472Z,70.90
2023-01-02T23:18:43.537Z,70.92
2023-01-02T23:21:11.781Z,70.84
2023-01-02T23:23:40.906Z,70.90
2023-01-02T23:26:08.837Z,71.00
2023-01-02T23:29:05.999Z,70.87
2023-01-02T23:31:29.083Z,70.78
2023-01-02T23:33:56.851Z,70.95
2023-01-02T23:36:24.808Z,70.88
2023-01-02T23:38:53.012Z,70.84
2023-01-02T23:41:20.825Z,70.91
2023-01-02T23:43:54.952Z,71.02
2023-01-02T23:46:23.111Z,70.87
2023-01-02T23:48:50.921Z,70.98
2023-01-02T23:51:21.319Z,71.05
2023-01-02T23:53:49.679Z,71.05
2023-01-02T23:56:18.888Z,70.89
2023-01-02T23:58:53.252Z,70.89
